Terminal Aerodrome Forecast
Issued by NWS

Home | Current Version | Previous Version | Text Only | Print | Product List | Glossary Off
Versions: 1 2 3 4 5 6 7 8 9 10 11 12 13 14 15 16 17 18 19 20 21 22

447
FTUS43 KUNR 211120
TAFGCC
TAF
KGCC 211120Z 2112/2212 16016KT P6SM SCT100
      TEMPO 2112/2114 SCT015
     FM211400 17018G28KT P6SM SCT200
     FM212100 16020G30KT P6SM SCT080 OVC150
     FM220300 18012KT P6SM OVC080=

USA.gov is the U.S. government's official web portal to all federal, state and local government web resources and services.